Impacts TAF Board
For situational awareness. Not to be used for flight planning purposes.
IDs:

KUNV - State College/Univ P, PA, US

Issued at 1206 UTC 03 Dec 2021
Updated at 1538 UTC 03 Dec 2021
Potential Impact None Slight Moderate High
Time1453Z 03/16Z 03/17Z 03/18Z 03/19Z 03/20Z 03/21Z 03/22Z 03/23Z 04/00Z 04/01Z 04/02Z 04/03Z 04/04Z>>
Type OBS PRVL PRVL PRVL PRVL PRVL PRVL PRVL PRVL PRVL PRVL PRVL PRVL PRVL
VIS 10 >6 >6 >6 >6 >6 >6 >6 >6 >6 >6 >6 >6 >6
CIG 25 100 100 100 100 100 100 100 100 50 50 50 50 50
Cover OVC BKN BKN BKN BKN BKN BKN BKN BKN BKN BKN BKN BKN BKN
FltCat MVFR VFR VFR VFR VFR VFR VFR VFR VFR VFR VFR VFR VFR VFR
WX -- -- -- -- -- -- -- -- -- -- -- -- -- --
WDir 310 290 290 290 290 290 290 290 290 VRB VRB VRB VRB VRB
WSpd 10 9 9 9 9 9 9 9 9 2 2 2 2 2
WGst -- 17 17 17 17 17 17 17 17 -- -- -- -- --
WSHgt -- -- -- -- -- -- -- -- -- -- -- -- -- --
WSDir -- -- -- -- -- -- -- -- -- -- -- -- -- --
WSSpd -- -- -- -- -- -- -- -- -- -- -- -- -- --
Raw TAF
KUNV 031206Z 0312/0412 29008G16KT P6SM BKN035
  FM031400 29009G17KT P6SM SCT050 BKN100
  FM040000 VRB02KT P6SM BKN050


Raw METAR
KUNV 031453Z 31010KT 10SM OVC025 04/M01 A3002
KUNV 031353Z 31010KT 10SM BKN027 04/M02 A3000
KUNV 031253Z 31010KT 10SM SCT029 03/M02 A2998

METAR Board
Radar Display
Forecast Discussion
For situational awareness. Not to be used for flight planning purposes.